KSMX/SMX METAR and TAF weather

Enter ICAO airport designator
Station Type Date Time Source
KSMX METAR 2020/01/21 17:51 UTC NOAA

KSMX 211751Z 00000KT 10SM FEW010 BKN120 14/10 A3019 RMK AO2 SLP224 T01390100 10139 20094 51020 $


Station Type Date Time Source
KSMX Decoded METAR 2020/01/21 17:51 UTC NOAA

SANTA MARIA PUBLIC AIRPORT, CA, United States (KSMX) 34-54N 120-28W 74M
Jan 21, 2020 - 12:51 PM EST / 2020.01.21 1751 UTC
Wind: Calm:0
Visibility: 10 mile(s):0
Sky conditions: mostly cloudy
Temperature: 57.0 F (13.9 C)
Dew Point: 50.0 F (10.0 C)
Relative Humidity: 77%
Pressure (altimeter): 30.19 in. Hg (1022 hPa)
Pressure tendency: 0.06 inches (2.0 hPa) higher than three hours ago
ob: KSMX 211751Z 00000KT 10SM FEW010 BKN120 14/10 A3019 RMK AO2 SLP224 T01390100 10139 20094 51020
cycle: 18

Station Type Date Time Source
KSMX TAF 2020/01/21 18:33 UTC NOAA

TAF KSMX 211730Z 2118/2218 00000KT P6SM SCT013
FM212100 30008KT P6SM BKN150
FM220300 VRB03KT P6SM BKN150
FM220500 VRB03KT P6SM BKN025

Example: see airport list